Avondale, Pennsylvania
Current Conditions -  °F | °C
As of 10:55 AM on Wednesday 28 Jan 2015 (Local Time) from KMQS Reporting Station
Clear Clear  
Wind Chill: -11°   Ceiling: Unl
Heat Index: -4°   Visibility: 10mi
Dew Point: -15°   Wind: 15mph
Humidity: 43%   Direction: 310°NW
Pressure: 30.14"   Gusts: 18mph
Location:  39.82°N, 75.78°W
Report Text: KMQS 281555Z AUTO 31013G16KT 10SM CLR M04/M15 A3014 RMK AO2
Loading
Personal Weather Stations






























Interactive Weather Map New forecast layout! Learn more

10-Day Weather Forecast

Advertisements
Track Severe Weather on mobile